Time;durP1;ratioP1;P1;durP2;ratioP2;P2;SDS_P1;SDS_P2;PMS_P1;PMS_P2;Temp;Humidity;BMP_temperature;BMP_pressure;BME280_temperature;BME280_humidity;BME280_pressure;Samples;Min_cycle;Max_cycle;Signal;HPM_P1;HPM_P2
2023/09/08 00:00:27;;;;;;;3.70;3.40;;;;;;;;;;5024577;28;20669;-84
2023/09/08 00:02:55;;;;;;;4.45;3.70;;;;;;;;;;4991602;28;20232;-87
2023/09/08 00:05:20;;;;;;;3.92;3.58;;;;;;;;;;5039279;28;20232;-86
2023/09/08 00:07:48;;;;;;;4.07;3.70;;;;;;;;;;5019373;28;20217;-85
2023/09/08 00:10:14;;;;;;;3.97;3.35;;;;;;;;;;4994266;28;20220;-86
2023/09/08 00:12:39;;;;;;;3.75;3.33;;;;;;;;;;4996522;28;20250;-86
2023/09/08 00:15:06;;;;;;;4.38;3.55;;;;;;;;;;5010991;28;20216;-87
2023/09/08 00:17:31;;;;;;;5.78;3.53;;;;;;;;;;4993775;28;20349;-86
2023/09/08 00:19:57;;;;;;;3.53;3.22;;;;;;;;;;4999604;28;20236;-88
2023/09/08 00:22:23;;;;;;;4.00;3.60;;;;;;;;;;5021270;28;20712;-87
2023/09/08 00:24:51;;;;;;;4.00;3.65;;;;;;;;;;5025324;28;20233;-87
2023/09/08 00:27:16;;;;;;;5.57;3.50;;;;;;;;;;5037292;28;20677;-86
2023/09/08 00:29:42;;;;;;;4.35;3.97;;;;;;;;;;5028785;28;20224;-87
2023/09/08 00:32:08;;;;;;;3.78;3.45;;;;;;;;;;4993099;28;20226;-88
2023/09/08 00:34:33;;;;;;;3.63;3.33;;;;;;;;;;5035334;28;20228;-88
2023/09/08 00:37:00;;;;;;;3.83;3.53;;;;;;;;;;4989356;28;20224;-88
2023/09/08 00:39:30;;;;;;;4.75;3.78;;;;;;;;;;5011852;28;20787;-87
2023/09/08 00:42:00;;;;;;;4.30;3.45;;;;;;;;;;5005524;28;20254;-87
2023/09/08 00:44:28;;;;;;;6.65;3.53;;;;;;;;;;5004006;28;20258;-88
2023/09/08 00:46:56;;;;;;;3.92;3.63;;;;;;;;;;5008419;28;20212;-88
2023/09/08 00:49:23;;;;;;;4.57;3.55;;;;;;;;;;5007350;28;20220;-87
2023/09/08 00:51:49;;;;;;;4.18;3.78;;;;;;;;;;5025268;28;20220;-88
2023/09/08 00:54:15;;;;;;;4.38;3.65;;;;;;;;;;4989278;28;20204;-88
2023/09/08 00:56:43;;;;;;;4.57;3.70;;;;;;;;;;5018341;28;20216;-86
2023/09/08 00:59:08;;;;;;;3.90;3.50;;;;;;;;;;5006082;28;20212;-87
2023/09/08 01:01:34;;;;;;;6.15;3.80;;;;;;;;;;5021612;28;20594;-87
2023/09/08 01:04:02;;;;;;;3.88;3.55;;;;;;;;;;5022116;28;20259;-87
2023/09/08 01:06:28;;;;;;;3.88;3.50;;;;;;;;;;4998033;28;20796;-86
2023/09/08 01:08:55;;;;;;;5.75;4.05;;;;;;;;;;5010954;28;20240;-87
2023/09/08 01:11:21;;;;;;;4.25;3.70;;;;;;;;;;5019817;28;20221;-87
2023/09/08 01:13:47;;;;;;;3.78;3.45;;;;;;;;;;4995752;28;20239;-87
2023/09/08 01:16:13;;;;;;;3.80;3.50;;;;;;;;;;4980710;28;20581;-87
2023/09/08 01:18:38;;;;;;;4.32;3.55;;;;;;;;;;5008288;28;20623;-86
2023/09/08 01:21:09;;;;;;;4.90;3.47;;;;;;;;;;5022148;28;20266;-86
2023/09/08 01:23:41;;;;;;;6.45;3.97;;;;;;;;;;5002873;28;20220;-87
2023/09/08 01:26:10;;;;;;;6.38;3.63;;;;;;;;;;5021464;28;20212;-86
2023/09/08 01:28:36;;;;;;;3.83;3.42;;;;;;;;;;5011282;28;20244;-87
2023/09/08 01:31:04;;;;;;;4.10;3.67;;;;;;;;;;5012306;28;20228;-86
2023/09/08 01:33:34;;;;;;;4.88;3.65;;;;;;;;;;5022022;28;20251;-87
2023/09/08 01:36:04;;;;;;;4.68;4.20;;;;;;;;;;5006592;28;20277;-89
2023/09/08 01:38:30;;;;;;;3.97;3.63;;;;;;;;;;5017927;28;20224;-88
2023/09/08 01:40:55;;;;;;;4.78;4.07;;;;;;;;;;5007172;28;20226;-87
2023/09/08 01:43:26;;;;;;;4.07;3.78;;;;;;;;;;5026757;28;20212;-87
2023/09/08 01:45:59;;;;;;;4.13;3.72;;;;;;;;;;4988342;28;20335;-88
2023/09/08 01:48:29;;;;;;;3.88;3.58;;;;;;;;;;4992732;28;20224;-87
2023/09/08 01:50:56;;;;;;;4.88;4.40;;;;;;;;;;5014007;28;20224;-87
2023/09/08 01:53:27;;;;;;;4.70;4.20;;;;;;;;;;4974959;28;20284;-87
2023/09/08 01:55:55;;;;;;;4.25;3.85;;;;;;;;;;4992329;28;20220;-87
2023/09/08 01:58:21;;;;;;;3.88;3.58;;;;;;;;;;5023498;28;20224;-87
2023/09/08 02:00:51;;;;;;;7.10;4.28;;;;;;;;;;5010018;28;20234;-88
2023/09/08 02:03:16;;;;;;;3.60;3.35;;;;;;;;;;5007033;28;20668;-86
2023/09/08 02:05:45;;;;;;;7.53;4.10;;;;;;;;;;4992796;28;20232;-86
2023/09/08 02:08:10;;;;;;;4.03;3.70;;;;;;;;;;4989161;28;20675;-86
2023/09/08 02:10:36;;;;;;;6.43;4.10;;;;;;;;;;5003686;28;20212;-87
2023/09/08 02:13:01;;;;;;;4.38;4.03;;;;;;;;;;5022751;28;20228;-87
2023/09/08 02:15:27;;;;;;;4.07;3.75;;;;;;;;;;5000149;28;20287;-88
2023/09/08 02:17:56;;;;;;;4.43;3.78;;;;;;;;;;5022014;28;20212;-88
2023/09/08 02:20:21;;;;;;;4.65;4.15;;;;;;;;;;5004201;28;20224;-88
2023/09/08 02:22:50;;;;;;;5.93;3.67;;;;;;;;;;5023180;28;20204;-87
2023/09/08 02:25:18;;;;;;;5.57;4.03;;;;;;;;;;5009210;28;20221;-87
2023/09/08 02:27:46;;;;;;;4.78;4.28;;;;;;;;;;5015879;28;20212;-86
2023/09/08 02:30:15;;;;;;;4.50;4.10;;;;;;;;;;5010536;28;20227;-87
2023/09/08 02:32:42;;;;;;;4.57;4.18;;;;;;;;;;5009660;28;20216;-88
2023/09/08 02:35:09;;;;;;;4.63;4.22;;;;;;;;;;5022268;28;20598;-87
2023/09/08 02:37:38;;;;;;;4.82;4.43;;;;;;;;;;5010003;28;20242;-88
2023/09/08 02:40:08;;;;;;;4.65;4.10;;;;;;;;;;5025673;28;20236;-87
2023/09/08 02:42:37;;;;;;;6.70;4.22;;;;;;;;;;5025012;28;20243;-87
2023/09/08 02:45:06;;;;;;;4.72;4.32;;;;;;;;;;5020196;28;20223;-87
2023/09/08 02:47:34;;;;;;;6.30;4.55;;;;;;;;;;4976303;28;20251;-86
2023/09/08 02:50:02;;;;;;;5.05;4.65;;;;;;;;;;5000157;28;20220;-86
2023/09/08 02:52:28;;;;;;;4.57;4.18;;;;;;;;;;4987924;28;20235;-86
2023/09/08 02:54:54;;;;;;;4.43;4.03;;;;;;;;;;4989328;28;20228;-87
2023/09/08 02:57:19;;;;;;;4.70;4.32;;;;;;;;;;4981658;28;20216;-88
2023/09/08 02:59:51;;;;;;;4.22;3.92;;;;;;;;;;5008293;28;20227;-87
2023/09/08 03:02:16;;;;;;;6.47;4.60;;;;;;;;;;5007472;28;20610;-87
2023/09/08 03:04:42;;;;;;;4.72;4.25;;;;;;;;;;5023634;28;20920;-87
2023/09/08 03:07:11;;;;;;;5.88;4.70;;;;;;;;;;5000926;28;20250;-86
2023/09/08 03:09:41;;;;;;;4.85;4.30;;;;;;;;;;5016386;28;20252;-86
2023/09/08 03:12:06;;;;;;;4.78;4.43;;;;;;;;;;5020597;28;20283;-88
2023/09/08 03:14:33;;;;;;;5.10;4.60;;;;;;;;;;5004141;28;20227;-87
2023/09/08 03:17:03;;;;;;;4.75;4.40;;;;;;;;;;5003826;28;20212;-87
2023/09/08 03:19:32;;;;;;;4.82;4.43;;;;;;;;;;4997531;28;20208;-86
2023/09/08 03:22:00;;;;;;;5.30;4.80;;;;;;;;;;5005676;28;20216;-88
2023/09/08 03:24:27;;;;;;;4.65;4.25;;;;;;;;;;5017382;28;21717;-87
2023/09/08 03:26:58;;;;;;;7.75;4.50;;;;;;;;;;4991617;28;20633;-87
2023/09/08 03:29:24;;;;;;;5.60;5.03;;;;;;;;;;5004857;28;20236;-86
2023/09/08 03:31:52;;;;;;;5.55;5.05;;;;;;;;;;5002906;28;20219;-87
2023/09/08 03:34:20;;;;;;;5.60;4.95;;;;;;;;;;4990290;28;20254;-86
2023/09/08 03:36:49;;;;;;;7.50;5.18;;;;;;;;;;5004726;28;20219;-86
2023/09/08 03:39:19;;;;;;;5.65;5.07;;;;;;;;;;5019088;28;20208;-87
2023/09/08 03:41:45;;;;;;;5.30;4.90;;;;;;;;;;5018095;28;20220;-87
2023/09/08 03:44:11;;;;;;;5.45;4.95;;;;;;;;;;5005183;28;20235;-79
2023/09/08 03:46:36;;;;;;;5.32;4.82;;;;;;;;;;4988329;28;20611;-79
2023/09/08 03:49:04;;;;;;;5.43;4.93;;;;;;;;;;5004232;28;20223;-77
2023/09/08 03:51:34;;;;;;;5.25;4.80;;;;;;;;;;5003293;28;20342;-78
2023/09/08 03:54:03;;;;;;;5.53;5.13;;;;;;;;;;4987390;28;20261;-77
2023/09/08 03:56:28;;;;;;;6.07;5.50;;;;;;;;;;5003494;28;20207;-79
2023/09/08 03:58:56;;;;;;;6.35;5.25;;;;;;;;;;4988976;28;20612;-78
2023/09/08 04:05:10;;;;;;;6.25;5.00;;;;;;;;;;5022986;28;20307;-79
2023/09/08 04:07:36;;;;;;;6.38;5.10;;;;;;;;;;5006453;28;20228;-77
2023/09/08 04:10:02;;;;;;;5.32;4.90;;;;;;;;;;4972112;28;20220;-80
2023/09/08 04:12:30;;;;;;;5.55;4.93;;;;;;;;;;5002260;28;20342;-80
2023/09/08 04:14:56;;;;;;;5.90;5.40;;;;;;;;;;4987647;28;20289;-78
2023/09/08 04:17:22;;;;;;;5.43;4.93;;;;;;;;;;4985125;28;20216;-78
2023/09/08 04:19:47;;;;;;;7.00;5.70;;;;;;;;;;5000553;28;20216;-78
2023/09/08 04:22:20;;;;;;;5.25;4.85;;;;;;;;;;5002340;28;20231;-79
2023/09/08 04:24:45;;;;;;;5.50;5.00;;;;;;;;;;5005331;28;20291;-80
2023/09/08 04:27:13;;;;;;;6.18;5.10;;;;;;;;;;5003227;28;20274;-78
2023/09/08 04:29:39;;;;;;;5.63;5.10;;;;;;;;;;4985622;28;20228;-80
2023/09/08 04:32:08;;;;;;;9.18;6.35;;;;;;;;;;4991536;28;20227;-78
2023/09/08 04:34:39;;;;;;;5.22;4.72;;;;;;;;;;5009648;28;20252;-78
2023/09/08 04:37:04;;;;;;;5.90;4.97;;;;;;;;;;4992677;28;20286;-79
2023/09/08 04:39:30;;;;;;;6.07;5.57;;;;;;;;;;5009148;28;20834;-80
2023/09/08 04:41:55;;;;;;;5.47;5.00;;;;;;;;;;5014287;28;20223;-78
2023/09/08 04:44:24;;;;;;;5.68;5.18;;;;;;;;;;5016928;28;20815;-79
2023/09/08 04:46:51;;;;;;;5.97;5.47;;;;;;;;;;5029426;28;20242;-79
2023/09/08 04:49:16;;;;;;;7.45;5.35;;;;;;;;;;5005785;28;20208;-78
2023/09/08 04:51:43;;;;;;;5.57;5.07;;;;;;;;;;5019317;28;20286;-78
2023/09/08 04:54:08;;;;;;;5.70;5.13;;;;;;;;;;5008048;28;20754;-79
2023/09/08 04:56:34;;;;;;;5.65;4.90;;;;;;;;;;4989864;28;20327;-78
2023/09/08 04:59:00;;;;;;;7.50;5.43;;;;;;;;;;5018211;28;20212;-78
2023/09/08 05:01:27;;;;;;;5.60;5.10;;;;;;;;;;5016193;28;20248;-78
2023/09/08 05:03:55;;;;;;;5.50;5.10;;;;;;;;;;5002164;28;20228;-78
2023/09/08 05:06:28;;;;;;;6.55;5.38;;;;;;;;;;5037096;28;20222;-77
2023/09/08 05:08:56;;;;;;;6.20;5.60;;;;;;;;;;5037807;28;20246;-78
2023/09/08 05:11:26;;;;;;;6.80;5.72;;;;;;;;;;5006886;28;20315;-79
2023/09/08 05:13:51;;;;;;;6.05;5.55;;;;;;;;;;4999261;28;20766;-79
2023/09/08 05:16:25;;;;;;;6.18;5.63;;;;;;;;;;5019654;28;20231;-79
2023/09/08 05:18:53;;;;;;;7.13;5.65;;;;;;;;;;5021855;28;20267;-80
2023/09/08 05:21:21;;;;;;;8.30;6.13;;;;;;;;;;4993317;28;20244;-80
2023/09/08 05:23:47;;;;;;;5.93;5.32;;;;;;;;;;4980755;28;20212;-78
2023/09/08 05:26:13;;;;;;;8.10;6.03;;;;;;;;;;4996051;28;20207;-79
2023/09/08 05:28:38;;;;;;;6.07;5.53;;;;;;;;;;4997530;28;20232;-79
2023/09/08 05:31:07;;;;;;;6.18;5.57;;;;;;;;;;5011272;28;20265;-78
2023/09/08 05:33:34;;;;;;;6.15;5.45;;;;;;;;;;5013307;28;20228;-79
2023/09/08 05:35:59;;;;;;;6.00;5.47;;;;;;;;;;5016420;28;20826;-80
2023/09/08 05:38:28;;;;;;;5.47;4.97;;;;;;;;;;5009277;28;20322;-80
2023/09/08 05:40:54;;;;;;;5.80;5.30;;;;;;;;;;4995691;28;20365;-77
2023/09/08 05:43:21;;;;;;;7.10;5.28;;;;;;;;;;5013680;28;20239;-79
2023/09/08 05:45:48;;;;;;;6.07;5.57;;;;;;;;;;5017738;28;20235;-79
2023/09/08 05:48:18;;;;;;;6.45;5.25;;;;;;;;;;5010986;28;20220;-78
2023/09/08 05:50:44;;;;;;;5.80;5.30;;;;;;;;;;5011909;28;20238;-80
2023/09/08 05:53:11;;;;;;;6.00;5.45;;;;;;;;;;5024497;28;20608;-81
2023/09/08 05:55:39;;;;;;;5.88;5.38;;;;;;;;;;5010676;28;20228;-80
2023/09/08 05:58:10;;;;;;;10.98;6.07;;;;;;;;;;4997225;28;20222;-79
2023/09/08 06:00:38;;;;;;;6.97;5.78;;;;;;;;;;5012293;28;20231;-77
2023/09/08 06:03:09;;;;;;;6.63;6.03;;;;;;;;;;5016710;28;20216;-78
2023/09/08 06:05:35;;;;;;;5.90;5.50;;;;;;;;;;5005015;28;20337;-77
2023/09/08 06:08:00;;;;;;;7.38;5.88;;;;;;;;;;5014141;28;20227;-75
2023/09/08 06:10:31;;;;;;;6.82;5.72;;;;;;;;;;5007294;28;20211;-75
2023/09/08 06:12:59;;;;;;;6.13;5.63;;;;;;;;;;5026560;28;20236;-76
2023/09/08 06:15:27;;;;;;;6.93;6.22;;;;;;;;;;5021196;28;20222;-76
2023/09/08 06:17:53;;;;;;;6.57;5.85;;;;;;;;;;5011379;28;20232;-75
2023/09/08 06:20:24;;;;;;;6.47;5.35;;;;;;;;;;5032789;28;20200;-75
2023/09/08 06:22:49;;;;;;;6.30;5.35;;;;;;;;;;5017875;28;20258;-76
2023/09/08 06:25:16;;;;;;;5.32;4.93;;;;;;;;;;5028449;28;20224;-76
2023/09/08 06:27:44;;;;;;;5.18;4.57;;;;;;;;;;5025044;28;20236;-77
2023/09/08 06:30:14;;;;;;;6.25;5.43;;;;;;;;;;5011135;28;20228;-78
2023/09/08 06:32:42;;;;;;;4.97;4.68;;;;;;;;;;5000784;28;20330;-77
2023/09/08 06:35:08;;;;;;;5.07;4.68;;;;;;;;;;4994734;28;20609;-76
2023/09/08 06:37:37;;;;;;;6.68;5.75;;;;;;;;;;5017262;28;20359;-77
2023/09/08 06:40:05;;;;;;;5.43;4.75;;;;;;;;;;5018281;28;20223;-78
2023/09/08 06:42:33;;;;;;;5.85;5.05;;;;;;;;;;5010318;28;20573;-78
2023/09/08 06:45:11;;;;;;;7.65;5.22;;;;;;;;;;5019522;28;20603;-79
2023/09/08 06:47:37;;;;;;;6.22;5.35;;;;;;;;;;5012128;28;20235;-78
2023/09/08 06:50:03;;;;;;;6.38;5.32;;;;;;;;;;5011687;28;20752;-78
2023/09/08 06:52:28;;;;;;;5.85;5.07;;;;;;;;;;5030921;28;20231;-77
2023/09/08 06:54:54;;;;;;;7.85;5.30;;;;;;;;;;5020736;28;20227;-78
2023/09/08 06:57:20;;;;;;;5.40;4.93;;;;;;;;;;5018388;28;20688;-77
2023/09/08 06:59:46;;;;;;;5.38;4.88;;;;;;;;;;4995009;28;20216;-77
2023/09/08 07:02:16;;;;;;;6.13;5.53;;;;;;;;;;5008939;28;20208;-77
2023/09/08 07:04:41;;;;;;;5.45;4.95;;;;;;;;;;5011055;28;20251;-78
2023/09/08 07:07:14;;;;;;;5.40;4.90;;;;;;;;;;4987435;28;20227;-76
2023/09/08 07:09:40;;;;;;;5.57;4.60;;;;;;;;;;4999745;28;20260;-77
2023/09/08 07:12:08;;;;;;;5.50;4.75;;;;;;;;;;5010874;28;20658;-76
2023/09/08 07:14:37;;;;;;;5.65;5.13;;;;;;;;;;4991986;28;20228;-76
2023/09/08 07:17:03;;;;;;;6.13;5.22;;;;;;;;;;5006028;28;20332;-77
2023/09/08 07:19:31;;;;;;;6.00;5.40;;;;;;;;;;5010398;28;20718;-79
2023/09/08 07:21:58;;;;;;;12.18;5.13;;;;;;;;;;5010171;28;20224;-78
2023/09/08 07:24:24;;;;;;;5.40;4.90;;;;;;;;;;5017348;28;20282;-79
2023/09/08 07:26:52;;;;;;;5.82;4.65;;;;;;;;;;5031431;28;20224;-79
2023/09/08 07:29:17;;;;;;;9.70;5.32;;;;;;;;;;4995535;28;20229;-78
2023/09/08 07:31:43;;;;;;;7.93;5.47;;;;;;;;;;5016941;28;20216;-79
2023/09/08 07:34:08;;;;;;;5.40;4.93;;;;;;;;;;5012533;28;20822;-77
2023/09/08 07:36:37;;;;;;;5.10;4.70;;;;;;;;;;5010984;28;20227;-77
2023/09/08 07:39:03;;;;;;;5.75;4.93;;;;;;;;;;5011057;28;20224;-77
2023/09/08 07:41:29;;;;;;;5.57;4.90;;;;;;;;;;5012589;28;20227;-76
2023/09/08 07:43:57;;;;;;;6.05;4.60;;;;;;;;;;5012031;28;20235;-78
2023/09/08 07:46:24;;;;;;;4.90;4.50;;;;;;;;;;5010334;28;20262;-86
2023/09/08 07:48:52;;;;;;;5.38;4.88;;;;;;;;;;4979762;28;20223;-87
2023/09/08 07:51:18;;;;;;;5.18;4.68;;;;;;;;;;4983751;28;20295;-87
2023/09/08 07:53:43;;;;;;;5.68;5.15;;;;;;;;;;5005303;28;20240;-85
2023/09/08 07:56:09;;;;;;;4.72;4.22;;;;;;;;;;4998857;28;20228;-88
2023/09/08 07:58:36;;;;;;;5.40;4.90;;;;;;;;;;5027633;28;20230;-89
2023/09/08 08:01:04;;;;;;;6.22;4.60;;;;;;;;;;4999098;28;20605;-87
2023/09/08 08:03:30;;;;;;;5.13;4.38;;;;;;;;;;4977541;28;20246;-86
2023/09/08 08:05:59;;;;;;;5.05;4.63;;;;;;;;;;5014466;28;20232;-86
2023/09/08 08:08:27;;;;;;;5.38;4.88;;;;;;;;;;5029061;28;20239;-88
2023/09/08 08:10:53;;;;;;;5.18;4.05;;;;;;;;;;4999572;28;20277;-87
2023/09/08 08:13:18;;;;;;;4.82;4.43;;;;;;;;;;4999031;28;20217;-86
2023/09/08 08:15:47;;;;;;;4.93;4.43;;;;;;;;;;4979719;28;20224;-87
2023/09/08 08:18:12;;;;;;;6.32;4.20;;;;;;;;;;4979647;28;20217;-85
2023/09/08 08:20:40;;;;;;;5.20;4.70;;;;;;;;;;5025010;28;20232;-89
2023/09/08 08:23:08;;;;;;;5.05;4.55;;;;;;;;;;4994888;28;20220;-87
2023/09/08 08:25:36;;;;;;;4.90;4.07;;;;;;;;;;5029963;28;20216;-85
2023/09/08 08:28:02;;;;;;;6.35;4.05;;;;;;;;;;5021872;28;20225;-87
2023/09/08 08:30:28;;;;;;;5.43;4.70;;;;;;;;;;5005430;28;20715;-89
2023/09/08 08:32:56;;;;;;;5.65;4.28;;;;;;;;;;5017278;28;20359;-85
2023/09/08 08:35:21;;;;;;;4.93;4.43;;;;;;;;;;5005635;28;20220;-87
2023/09/08 08:37:47;;;;;;;4.78;4.10;;;;;;;;;;5012607;28;20224;-86
2023/09/08 08:40:13;;;;;;;4.13;3.83;;;;;;;;;;5020241;28;20747;-85
2023/09/08 08:42:40;;;;;;;4.68;4.15;;;;;;;;;;5010066;28;20220;-88
2023/09/08 08:45:09;;;;;;;4.38;3.97;;;;;;;;;;5005523;28;20224;-85
2023/09/08 08:47:34;;;;;;;4.40;4.10;;;;;;;;;;4998547;28;20701;-84
2023/09/08 08:50:03;;;;;;;5.85;4.60;;;;;;;;;;5014733;28;20220;-85
2023/09/08 08:52:28;;;;;;;4.93;4.38;;;;;;;;;;4991977;28;20699;-84
2023/09/08 08:54:54;;;;;;;4.30;3.90;;;;;;;;;;5021304;28;20286;-86
2023/09/08 08:57:22;;;;;;;5.88;4.18;;;;;;;;;;5017382;28;20223;-85
2023/09/08 08:59:54;;;;;;;4.43;3.95;;;;;;;;;;5000968;28;20650;-86
2023/09/08 09:02:22;;;;;;;4.72;3.85;;;;;;;;;;5004170;28;20590;-84
2023/09/08 09:04:47;;;;;;;5.63;4.03;;;;;;;;;;4987738;28;20231;-84
2023/09/08 09:07:13;;;;;;;5.60;4.45;;;;;;;;;;5017986;28;20224;-85
2023/09/08 09:09:41;;;;;;;4.47;4.03;;;;;;;;;;5000359;28;20223;-82
2023/09/08 09:12:09;;;;;;;4.95;4.20;;;;;;;;;;5001967;28;20833;-84
2023/09/08 09:14:41;;;;;;;4.53;4.03;;;;;;;;;;5019424;28;20362;-85
2023/09/08 09:17:12;;;;;;;4.68;4.28;;;;;;;;;;5002181;28;20787;-84
2023/09/08 09:19:41;;;;;;;6.05;4.25;;;;;;;;;;5016165;28;20231;-86
2023/09/08 09:22:09;;;;;;;6.97;4.07;;;;;;;;;;5018928;28;20199;-86
2023/09/08 09:24:46;;;;;;;7.38;4.47;;;;;;;;;;5035161;28;20843;-84
2023/09/08 09:27:11;;;;;;;4.50;4.10;;;;;;;;;;4986276;28;20284;-85
2023/09/08 09:29:46;;;;;;;6.53;4.20;;;;;;;;;;4988402;28;20215;-85
2023/09/08 09:32:12;;;;;;;4.25;3.88;;;;;;;;;;5017965;28;20248;-79
2023/09/08 09:34:47;;;;;;;4.55;4.13;;;;;;;;;;5013145;28;20307;-80
2023/09/08 09:37:13;;;;;;;3.80;3.40;;;;;;;;;;5000704;28;20228;-80
2023/09/08 09:39:38;;;;;;;4.78;4.07;;;;;;;;;;5033383;28;20239;-80
2023/09/08 09:42:04;;;;;;;29.15;8.07;;;;;;;;;;5033086;28;20226;-80
2023/09/08 09:44:30;;;;;;;5.85;4.20;;;;;;;;;;5016680;28;20750;-80
2023/09/08 09:46:57;;;;;;;4.30;3.88;;;;;;;;;;4985393;28;20582;-81
2023/09/08 09:49:31;;;;;;;3.97;3.65;;;;;;;;;;5007364;28;20215;-80
2023/09/08 09:51:57;;;;;;;4.82;4.40;;;;;;;;;;5015074;28;20225;-80
2023/09/08 09:54:23;;;;;;;5.53;3.80;;;;;;;;;;5016431;28;20700;-81
2023/09/08 09:56:48;;;;;;;30.40;7.03;;;;;;;;;;5026730;28;20208;-83
2023/09/08 09:59:14;;;;;;;7.60;4.47;;;;;;;;;;5003882;28;20293;-81
2023/09/08 10:01:40;;;;;;;8.27;3.80;;;;;;;;;;4998593;28;20216;-81
2023/09/08 10:04:09;;;;;;;5.80;3.75;;;;;;;;;;5032389;28;20227;-82
2023/09/08 10:06:36;;;;;;;5.47;4.07;;;;;;;;;;5016989;28;20220;-81
2023/09/08 10:09:04;;;;;;;4.93;3.88;;;;;;;;;;5000898;28;20246;-83
2023/09/08 10:11:35;;;;;;;6.22;3.67;;;;;;;;;;5014408;28;20992;-82
2023/09/08 10:14:00;;;;;;;4.22;3.40;;;;;;;;;;5001488;28;20219;-79
2023/09/08 10:16:28;;;;;;;3.83;3.40;;;;;;;;;;5017347;28;20212;-83
2023/09/08 10:18:58;;;;;;;3.95;3.42;;;;;;;;;;5013058;28;20219;-81
2023/09/08 10:21:27;;;;;;;4.78;3.50;;;;;;;;;;4999609;28;20285;-81
2023/09/08 10:24:09;;;;;;;4.00;3.60;;;;;;;;;;5020560;28;20228;-80
2023/09/08 10:26:34;;;;;;;6.68;3.45;;;;;;;;;;5016058;28;20224;-79
2023/09/08 10:29:00;;;;;;;10.32;4.10;;;;;;;;;;5018766;28;20314;-80
2023/09/08 10:31:26;;;;;;;5.07;3.10;;;;;;;;;;5018330;28;20228;-82
2023/09/08 10:34:03;;;;;;;5.38;3.25;;;;;;;;;;5008304;28;20307;-86
2023/09/08 10:36:31;;;;;;;3.70;3.40;;;;;;;;;;5011463;28;20230;-86
2023/09/08 10:39:35;;;;;;;3.78;3.47;;;;;;;;;;5017738;28;20291;-86
2023/09/08 10:42:19;;;;;;;3.95;3.10;;;;;;;;;;4999982;28;20618;-86
2023/09/08 10:44:49;;;;;;;3.35;3.05;;;;;;;;;;5030410;28;20231;-85
2023/09/08 10:47:19;;;;;;;5.20;3.13;;;;;;;;;;5046865;28;20235;-85
2023/09/08 10:49:47;;;;;;;14.50;3.85;;;;;;;;;;5012530;28;20216;-87
2023/09/08 10:52:12;;;;;;;6.82;3.35;;;;;;;;;;5022915;28;20255;-85
2023/09/08 10:54:43;;;;;;;3.78;2.85;;;;;;;;;;5011098;28;20242;-86
2023/09/08 10:57:15;;;;;;;3.10;2.80;;;;;;;;;;4985479;28;20220;-85
2023/09/08 10:59:56;;;;;;;3.10;2.85;;;;;;;;;;5005635;28;20220;-85
2023/09/08 11:02:31;;;;;;;3.17;2.88;;;;;;;;;;4987587;28;20299;-84
2023/09/08 11:04:57;;;;;;;5.15;3.40;;;;;;;;;;5004393;28;20239;-86
2023/09/08 11:07:24;;;;;;;3.60;3.00;;;;;;;;;;4991734;28;20243;-85
2023/09/08 11:09:54;;;;;;;3.63;3.25;;;;;;;;;;5007442;28;20231;-85
2023/09/08 11:12:24;;;;;;;3.70;3.17;;;;;;;;;;5014816;28;20225;-86
2023/09/08 11:14:52;;;;;;;3.80;3.40;;;;;;;;;;5025321;28;20307;-86
2023/09/08 11:17:25;;;;;;;3.47;3.17;;;;;;;;;;5033493;28;20232;-86
2023/09/08 11:19:52;;;;;;;2.95;2.70;;;;;;;;;;5017608;28;20248;-85
2023/09/08 11:22:24;;;;;;;7.10;2.75;;;;;;;;;;4975288;28;20322;-85
2023/09/08 11:24:49;;;;;;;7.72;2.45;;;;;;;;;;5016837;28;20224;-85
2023/09/08 11:27:17;;;;;;;3.00;2.70;;;;;;;;;;5010141;28;20231;-85
2023/09/08 11:29:44;;;;;;;4.28;2.67;;;;;;;;;;5006022;28;20295;-85
2023/09/08 11:32:10;;;;;;;2.55;2.35;;;;;;;;;;4983198;28;20231;-86
2023/09/08 11:34:38;;;;;;;3.45;2.60;;;;;;;;;;5001140;28;20278;-85
2023/09/08 11:37:09;;;;;;;3.45;2.30;;;;;;;;;;4986797;28;20219;-85
2023/09/08 11:39:39;;;;;;;2.20;2.00;;;;;;;;;;5017199;28;20287;-88
2023/09/08 11:42:09;;;;;;;4.47;2.20;;;;;;;;;;5002215;28;20231;-89
2023/09/08 11:44:35;;;;;;;2.90;2.47;;;;;;;;;;4999346;28;20232;-87
2023/09/08 11:47:09;;;;;;;3.78;2.53;;;;;;;;;;5003083;28;20243;-88
2023/09/08 11:49:43;;;;;;;2.95;2.30;;;;;;;;;;4999086;28;20211;-87
2023/09/08 11:52:09;;;;;;;5.13;2.50;;;;;;;;;;4989135;28;20195;-86
2023/09/08 11:54:37;;;;;;;2.88;2.30;;;;;;;;;;5003732;28;20222;-86
2023/09/08 11:57:04;;;;;;;2.60;2.40;;;;;;;;;;5007855;28;20208;-88
2023/09/08 11:59:32;;;;;;;2.45;2.25;;;;;;;;;;5001851;28;20716;-90
2023/09/08 12:01:58;;;;;;;3.08;2.53;;;;;;;;;;4997896;28;20311;-87
2023/09/08 12:04:26;;;;;;;2.35;2.15;;;;;;;;;;5006359;28;20216;-87
2023/09/08 12:06:52;;;;;;;2.47;2.22;;;;;;;;;;5020960;28;20219;-87
2023/09/08 12:09:18;;;;;;;2.90;2.35;;;;;;;;;;4988827;28;20219;-87
2023/09/08 12:11:46;;;;;;;2.67;2.47;;;;;;;;;;5039483;28;20212;-86
2023/09/08 12:14:14;;;;;;;3.17;2.55;;;;;;;;;;5009115;28;20212;-87
2023/09/08 12:16:43;;;;;;;5.03;2.50;;;;;;;;;;5025159;28;20311;-86
2023/09/08 12:19:28;;;;;;;3.38;2.50;;;;;;;;;;5012048;28;20220;-86
2023/09/08 12:21:54;;;;;;;2.53;2.33;;;;;;;;;;5002335;28;20224;-86
2023/09/08 12:24:23;;;;;;;2.85;2.65;;;;;;;;;;5016424;28;20231;-87
2023/09/08 12:26:49;;;;;;;4.63;2.88;;;;;;;;;;4993766;28;20287;-87
2023/09/08 12:29:15;;;;;;;2.90;2.70;;;;;;;;;;5009737;28;20231;-85
2023/09/08 12:31:43;;;;;;;2.90;2.50;;;;;;;;;;5023378;28;20246;-86
2023/09/08 12:34:15;;;;;;;2.85;2.47;;;;;;;;;;5007598;28;20343;-87
2023/09/08 12:36:43;;;;;;;4.57;2.45;;;;;;;;;;5000819;28;20235;-84
2023/09/08 12:39:09;;;;;;;3.72;2.90;;;;;;;;;;5016432;28;20220;-85
2023/09/08 12:41:34;;;;;;;3.05;2.63;;;;;;;;;;5019951;28;20495;-87
2023/09/08 12:44:03;;;;;;;4.18;2.95;;;;;;;;;;5025741;28;20238;-86
2023/09/08 12:46:31;;;;;;;3.15;2.45;;;;;;;;;;4993280;28;20599;-87
2023/09/08 12:48:59;;;;;;;2.85;2.55;;;;;;;;;;5006939;28;20224;-86
2023/09/08 12:51:24;;;;;;;2.50;2.00;;;;;;;;;;5021817;28;20240;-91
2023/09/08 12:53:52;;;;;;;3.15;2.65;;;;;;;;;;5006516;28;20204;-86
2023/09/08 12:56:18;;;;;;;2.60;2.38;;;;;;;;;;5019880;28;20220;-87
2023/09/08 12:58:43;;;;;;;2.58;2.28;;;;;;;;;;5005364;28;20228;-88
2023/09/08 13:01:15;;;;;;;2.95;2.70;;;;;;;;;;5036939;28;20224;-84
2023/09/08 13:03:41;;;;;;;2.80;2.53;;;;;;;;;;4996952;28;20292;-86
2023/09/08 13:06:08;;;;;;;2.83;2.58;;;;;;;;;;5009413;28;20294;-85
2023/09/08 13:08:37;;;;;;;2.50;2.30;;;;;;;;;;5029914;28;20278;-87
2023/09/08 13:11:03;;;;;;;3.33;2.85;;;;;;;;;;5020277;28;20232;-86
2023/09/08 13:13:31;;;;;;;3.28;2.67;;;;;;;;;;5011079;28;20599;-86
2023/09/08 13:16:00;;;;;;;2.65;2.42;;;;;;;;;;4989170;28;20197;-89
2023/09/08 13:18:25;;;;;;;3.15;2.25;;;;;;;;;;5001647;28;20882;-86
2023/09/08 13:20:54;;;;;;;2.47;2.25;;;;;;;;;;5010569;28;20235;-89
2023/09/08 13:23:23;;;;;;;3.78;2.30;;;;;;;;;;5021817;28;20212;-87
2023/09/08 13:25:48;;;;;;;2.70;1.92;;;;;;;;;;5019809;28;20231;-87
2023/09/08 13:28:14;;;;;;;2.08;1.98;;;;;;;;;;5021282;28;20220;-86
2023/09/08 13:30:39;;;;;;;2.63;2.22;;;;;;;;;;5026040;28;20275;-84
2023/09/08 13:33:10;;;;;;;2.45;2.25;;;;;;;;;;5015715;28;20340;-87
2023/09/08 13:35:36;;;;;;;4.30;2.35;;;;;;;;;;4984827;28;20229;-87
2023/09/08 13:38:02;;;;;;;2.50;2.30;;;;;;;;;;5035841;28;20238;-85
2023/09/08 13:40:28;;;;;;;4.72;2.40;;;;;;;;;;5035005;28;20307;-87
2023/09/08 13:43:01;;;;;;;5.47;2.78;;;;;;;;;;5024048;28;20280;-86
2023/09/08 13:45:27;;;;;;;4.63;2.42;;;;;;;;;;5004463;28;20227;-89
2023/09/08 13:47:52;;;;;;;2.35;2.15;;;;;;;;;;5050934;28;20228;-84
2023/09/08 13:50:29;;;;;;;4.55;2.50;;;;;;;;;;5048148;28;20250;-85
2023/09/08 13:53:26;;;;;;;4.20;2.80;;;;;;;;;;5042108;28;20224;-86
2023/09/08 13:55:54;;;;;;;2.80;2.47;;;;;;;;;;4988629;28;20310;-87
2023/09/08 13:58:20;;;;;;;4.00;2.17;;;;;;;;;;4986426;28;20221;-88
2023/09/08 14:00:49;;;;;;;4.15;2.55;;;;;;;;;;5005043;28;20220;-87
2023/09/08 14:03:15;;;;;;;3.75;2.42;;;;;;;;;;4986351;28;20224;-85
2023/09/08 14:05:43;;;;;;;4.90;2.72;;;;;;;;;;5017514;28;20263;-85
2023/09/08 14:08:08;;;;;;;2.67;2.40;;;;;;;;;;4996300;28;20216;-85
2023/09/08 14:10:43;;;;;;;2.40;2.20;;;;;;;;;;5022297;28;20224;-85
2023/09/08 14:13:09;;;;;;;3.97;2.28;;;;;;;;;;5009559;28;20315;-85
2023/09/08 14:15:37;;;;;;;3.63;2.38;;;;;;;;;;5007661;28;20219;-85
2023/09/08 14:18:02;;;;;;;3.10;2.38;;;;;;;;;;5018533;28;20231;-87
2023/09/08 14:20:33;;;;;;;2.97;2.50;;;;;;;;;;4998176;28;20710;-85
2023/09/08 14:23:03;;;;;;;5.10;2.60;;;;;;;;;;5030984;28;20243;-86
2023/09/08 14:25:29;;;;;;;4.03;2.53;;;;;;;;;;5007427;28;20237;-85
2023/09/08 14:27:57;;;;;;;2.83;2.35;;;;;;;;;;5032420;28;20196;-83
2023/09/08 14:30:26;;;;;;;2.95;2.08;;;;;;;;;;5017070;28;20293;-86
2023/09/08 14:32:54;;;;;;;4.13;2.42;;;;;;;;;;5032471;28;20232;-87
2023/09/08 14:35:20;;;;;;;2.40;2.20;;;;;;;;;;5017828;28;20208;-83
2023/09/08 14:37:50;;;;;;;4.15;2.28;;;;;;;;;;5006449;28;20212;-87
2023/09/08 14:40:23;;;;;;;3.67;2.00;;;;;;;;;;5093240;27;20583;-76
2023/09/08 14:42:53;;;;;;;4.55;2.03;;;;;;;;;;5074797;28;20207;-77
2023/09/08 14:45:23;;;;;;;2.85;2.38;;;;;;;;;;5080717;28;20323;-75
2023/09/08 14:47:48;;;;;;;2.38;2.17;;;;;;;;;;5077385;28;20357;-75
2023/09/08 14:50:16;;;;;;;2.78;2.50;;;;;;;;;;5037475;28;20219;-74